Time;durP1;ratioP1;P1;durP2;ratioP2;P2;SDS_P1;SDS_P2;PMS_P1;PMS_P2;Temp;Humidity;BMP_temperature;BMP_pressure;BME280_temperature;BME280_humidity;BME280_pressure;Samples;Min_cycle;Max_cycle;Signal;HPM_P1;HPM_P2
2022/05/31 00:00:33;;;;;;;20.32;13.65;;;;;;;9.50;77.30;99035.17;4195564;84;20993;-83
2022/05/31 00:06:55;;;;;;;26.60;16.93;;;;;;;9.25;77.56;99047.64;4173448;83;21109;-83
2022/05/31 00:12:56;;;;;;;23.57;15.55;;;;;;;9.11;77.78;99051.49;4170588;83;21093;-83
2022/05/31 00:19:23;;;;;;;26.07;16.05;;;;;;;9.14;79.16;99058.39;4173391;84;21570;-83
2022/05/31 00:25:42;;;;;;;23.73;17.40;;;;;;;9.24;79.17;99055.03;4171136;84;21119;-83
2022/05/31 00:32:08;;;;;;;27.32;18.20;;;;;;;9.19;78.86;99053.20;4171477;84;21578;-83
2022/05/31 00:38:24;;;;;;;30.53;19.50;;;;;;;9.02;79.30;99043.52;4166392;84;21606;-82
2022/05/31 00:44:35;;;;;;;26.50;17.45;;;;;;;8.91;79.80;99034.95;4182785;84;21612;-83
2022/05/31 00:50:55;;;;;;;31.35;20.12;;;;;;;8.93;80.29;99038.88;4152219;85;21116;-83
2022/05/31 00:57:22;;;;;;;25.05;17.25;;;;;;;8.78;79.68;99036.25;4223228;84;21033;-83
2022/05/31 01:03:58;;;;;;;23.00;16.35;;;;;;;8.69;80.80;99031.02;4211638;84;21059;-83
2022/05/31 01:10:05;;;;;;;22.05;16.32;;;;;;;8.81;81.43;99041.79;4186467;84;21064;-83
2022/05/31 01:17:04;;;;;;;27.67;19.67;;;;;;;8.68;81.15;99047.19;4079239;86;21169;-83
2022/05/31 01:23:50;;;;;;;;;;;;;;;8.45;80.99;99049.07;4114658;84;21120;-83
2022/05/31 01:30:10;;;;;;;25.62;17.80;;;;;;;8.34;82.53;99053.52;4148541;85;20554;-82
2022/05/31 01:36:40;;;;;;;29.67;20.43;;;;;;;8.15;81.47;99051.30;4120808;85;21140;-83
2022/05/31 01:42:50;;;;;;;26.80;19.60;;;;;;;8.02;81.70;99052.00;4143906;85;21048;-83
2022/05/31 01:48:58;;;;;;;28.40;19.77;;;;;;;7.91;82.14;99065.97;4173870;84;22315;-83
2022/05/31 01:55:19;;;;;;;27.80;17.17;;;;;;;7.84;82.04;99072.64;4080702;85;21007;-84
2022/05/31 02:01:23;;;;;;;26.05;17.10;;;;;;;7.80;82.96;99079.92;4086327;85;21037;-83
2022/05/31 02:07:26;;;;;;;23.87;17.62;;;;;;;7.92;83.18;99094.23;4098968;85;21123;-85
2022/05/31 02:13:45;;;;;;;22.13;15.90;;;;;;;8.03;83.24;99095.86;4092898;85;21111;-84
2022/05/31 02:19:55;;;;;;;24.85;16.90;;;;;;;7.94;82.95;99085.14;4169647;84;21080;-84
2022/05/31 02:26:04;;;;;;;33.67;17.98;;;;;;;7.71;82.13;99071.16;4152519;84;21077;-84
2022/05/31 02:32:12;;;;;;;31.45;19.52;;;;;;;7.42;82.05;99070.27;4091266;85;21034;-83
2022/05/31 02:38:15;;;;;;;24.85;18.32;;;;;;;7.22;82.70;99075.41;4156672;84;43276;-83
2022/05/31 02:44:38;;;;;;;27.60;16.52;;;;;;;7.13;83.30;99079.65;4120853;85;22324;-84
2022/05/31 02:50:58;;;;;;;23.45;18.07;;;;;;;7.33;83.95;99074.52;4116953;85;21092;-83
2022/05/31 02:57:04;;;;;;;23.42;16.37;;;;;;;7.19;83.32;99080.97;4134681;85;21070;-83
2022/05/31 03:03:27;;;;;;;22.52;14.38;;;;;;;7.18;84.27;99082.68;3946746;85;21758;-84
2022/05/31 03:10:02;;;;;;;22.17;15.25;;;;;;;7.39;84.58;99079.14;4120073;85;21336;-84
2022/05/31 03:16:05;;;;;;;20.27;14.85;;;;;;;7.56;84.84;99095.13;4119545;85;21055;-83
2022/05/31 03:22:19;;;;;;;23.12;15.75;;;;;;;7.64;84.79;99107.19;4122810;85;21023;-83
2022/05/31 03:28:26;;;;;;;21.95;17.12;;;;;;;7.60;83.68;99114.50;4118967;85;21058;-83
2022/05/31 03:34:38;;;;;;;21.33;14.98;;;;;;;7.33;84.11;99114.00;4126239;85;21013;-82
2022/05/31 03:47:22;;;;;;;23.20;16.82;;;;;;;7.44;84.68;99125.96;4271754;82;21572;-84
2022/05/31 03:53:32;;;;;;;26.57;18.67;;;;;;;7.41;85.01;99125.30;4006586;86;21139;-82
2022/05/31 03:59:37;;;;;;;24.18;17.60;;;;;;;7.35;84.92;99129.43;4015193;86;21028;-83
2022/05/31 04:05:46;;;;;;;24.45;16.95;;;;;;;7.43;86.04;99130.39;4267661;82;21083;-83
2022/05/31 04:11:47;;;;;;;31.52;19.67;;;;;;;7.65;86.51;99131.95;4274500;82;21068;-82
2022/05/31 04:17:59;;;;;;;23.92;17.70;;;;;;;7.78;86.22;99127.20;4274755;81;21125;-84
2022/05/31 04:24:08;;;;;;;24.40;18.05;;;;;;;7.96;87.16;99127.83;4265935;82;21205;-82
2022/05/31 04:30:25;;;;;;;26.35;16.97;;;;;;;8.14;87.34;99128.81;4278353;82;21060;-82
2022/05/31 04:36:47;;;;;;;20.75;15.23;;;;;;;8.34;87.66;99138.63;3994734;87;21675;-83
2022/05/31 04:43:02;;;;;;;18.40;14.20;;;;;;;8.59;87.68;99131.77;3999569;87;21147;-83
2022/05/31 04:49:18;;;;;;;19.00;14.07;;;;;;;8.84;87.58;99127.61;4256321;82;21024;-82
2022/05/31 04:55:23;;;;;;;27.60;16.17;;;;;;;9.08;87.69;99122.63;4286766;82;21077;-83
2022/05/31 05:01:32;;;;;;;23.47;15.03;;;;;;;9.31;87.63;99117.20;4272075;80;21025;-82
2022/05/31 05:07:44;;;;;;;21.50;15.60;;;;;;;9.54;87.14;99125.63;4179790;84;21029;-83
2022/05/31 05:13:46;;;;;;;21.52;15.15;;;;;;;9.77;86.84;99125.63;4271654;82;21054;-83
2022/05/31 05:20:12;;;;;;;21.30;15.68;;;;;;;10.01;86.65;99121.10;4283787;82;21044;-85
2022/05/31 05:26:27;;;;;;;21.00;16.10;;;;;;;10.31;86.39;99121.17;4280903;82;21268;-84
2022/05/31 05:32:45;;;;;;;21.62;15.80;;;;;;;10.62;86.03;99121.61;4285273;82;21033;-83
2022/05/31 05:38:56;;;;;;;24.05;15.90;;;;;;;10.97;85.92;99130.83;4233150;82;21031;-84
2022/05/31 05:45:07;;;;;;;17.67;14.45;;;;;;;11.25;85.62;99129.77;4245609;82;21032;-84
2022/05/31 05:51:30;;;;;;;19.05;13.60;;;;;;;11.52;85.33;99133.17;4251934;82;21116;-83
2022/05/31 05:57:48;;;;;;;18.73;11.30;;;;;;;11.79;85.38;99134.63;4144376;82;22159;-82
2022/05/31 06:04:46;;;;;;;15.53;12.00;;;;;;;12.06;84.76;99120.91;4246141;82;21112;-84
2022/05/31 06:11:35;;;;;;;17.20;13.22;;;;;;;12.33;84.36;99119.53;4243741;82;21092;-83
2022/05/31 06:17:59;;;;;;;19.32;12.28;;;;;;;12.66;84.17;99113.83;4236574;82;20997;-84
2022/05/31 06:24:27;;;;;;;14.83;11.83;;;;;;;13.01;83.97;99113.21;4230998;82;21471;-83
2022/05/31 06:30:37;;;;;;;17.75;12.28;;;;;;;13.36;83.71;99114.69;4275699;80;21050;-84
2022/05/31 06:37:01;;;;;;;18.10;12.50;;;;;;;13.75;83.12;99110.02;4172543;84;21513;-86
2022/05/31 06:43:03;;;;;;;14.15;10.05;;;;;;;14.10;82.31;99111.36;4192828;84;21531;-84
2022/05/31 06:49:34;;;;;;;12.45;10.60;;;;;;;14.50;82.43;99104.02;4170874;84;21633;-83
2022/05/31 07:02:38;;;;;;;9.53;7.53;;;;;;;15.97;80.96;99103.00;4086904;84;21006;-86
2022/05/31 07:09:34;;;;;;;10.55;7.17;;;;;;;16.72;80.30;99105.42;4236414;81;21061;-86
2022/05/31 07:15:52;;;;;;;7.70;6.15;;;;;;;17.35;79.40;99101.04;4252609;81;22087;-88
2022/05/31 07:22:18;;;;;;;8.18;6.28;;;;;;;18.21;78.45;99103.43;4222436;82;21069;-88
2022/05/31 07:28:33;;;;;;;8.08;5.95;;;;;;;18.81;76.43;99097.53;4196924;82;21074;-88
2022/05/31 07:34:49;;;;;;;9.20;5.12;;;;;;;19.15;75.43;99095.25;4224998;82;21054;-89
2022/05/31 07:40:53;;;;;;;6.95;5.12;;;;;;;19.45;70.81;99094.98;4176963;83;21075;-88
2022/05/31 07:47:04;;;;;;;8.20;5.17;;;;;;;19.72;71.03;99103.87;4217295;82;22016;-88
2022/05/31 07:53:06;;;;;;;7.35;5.30;;;;;;;20.00;67.64;99098.22;4232075;82;21061;-87
2022/05/31 07:59:20;;;;;;;5.95;4.67;;;;;;;20.06;67.68;99103.44;4189445;82;21020;-88
2022/05/31 08:20:06;;;;;;;13.70;4.17;;;;;;;20.06;63.75;99095.11;4241149;84;21054;-88
2022/05/31 08:26:35;;;;;;;11.53;4.70;;;;;;;20.15;62.70;99093.28;4222363;82;21103;-87
2022/05/31 08:40:09;;;;;;;5.90;3.92;;;;;;;20.12;61.08;99091.97;4231827;81;21021;-88
2022/05/31 08:53:37;;;;;;;5.45;3.42;;;;;;;20.05;58.80;99083.20;4211226;82;21050;-88
2022/05/31 09:00:01;;;;;;;4.67;2.47;;;;;;;20.35;59.23;99085.43;4190502;83;21042;-88
2022/05/31 09:13:26;;;;;;;5.37;2.42;;;;;;;20.85;53.80;99068.92;4204810;83;21019;-87
2022/05/31 09:19:45;;;;;;;2.92;2.30;;;;;;;20.72;56.16;99062.56;4209185;83;21090;-86
2022/05/31 09:26:51;;;;;;;3.52;1.70;;;;;;;21.27;55.80;99065.69;4210764;83;21691;-87
2022/05/31 09:33:32;;;;;;;3.15;2.02;;;;;;;21.56;53.23;99066.98;4216782;83;21007;-87
2022/05/31 10:00:52;;;;;;;3.22;1.85;;;;;;;23.62;43.89;99046.75;4226115;82;20995;-89
2022/05/31 10:07:15;;;;;;;3.25;1.92;;;;;;;23.29;44.78;99044.94;4209411;82;21043;-86
2022/05/31 10:14:00;;;;;;;3.37;1.70;;;;;;;23.31;41.35;99046.02;4202415;83;20953;-86
2022/05/31 10:20:37;;;;;;;5.47;2.20;;;;;;;23.10;39.74;99033.63;4232190;82;21089;-87
2022/05/31 10:33:27;;;;;;;2.77;1.65;;;;;;;23.06;42.44;99023.84;4238326;82;21124;-88
2022/05/31 10:39:56;;;;;;;3.12;2.35;;;;;;;23.02;42.21;99021.18;4222153;80;21025;-88
2022/05/31 10:46:32;;;;;;;1.70;1.60;;;;;;;22.93;42.81;99008.58;4208370;82;21012;-89
2022/05/31 10:53:25;;;;;;;2.65;1.80;;;;;;;23.37;41.55;99012.66;4154820;82;21026;-88
2022/05/31 11:00:15;;;;;;;2.37;1.80;;;;;;;24.04;42.23;99005.87;4202981;82;20990;-88
2022/05/31 11:13:45;;;;;;;2.55;1.70;;;;;;;25.07;42.67;98992.23;4231469;82;20172;-88
2022/05/31 11:20:31;;;;;;;3.98;1.90;;;;;;;25.57;42.49;98995.00;4220544;81;21940;-88
2022/05/31 11:34:07;;;;;;;5.10;1.65;;;;;;;26.26;41.39;98972.87;4147984;82;21084;-88
2022/05/31 11:48:25;;;;;;;5.55;1.92;;;;;;;26.37;38.92;98969.66;4158581;83;20987;-88
2022/05/31 12:24:17;;;;;;;4.83;1.87;;;;;;;25.37;37.83;98926.77;4236301;82;21012;-88
2022/05/31 12:30:51;;;;;;;2.22;1.52;;;;;;;24.97;37.04;98917.90;4228439;82;21022;-88
2022/05/31 12:50:11;;;;;;;2.70;1.55;;;;;;;24.22;37.40;98887.02;4234136;82;21463;-88
2022/05/31 12:56:37;;;;;;;3.50;1.77;;;;;;;23.88;34.46;98857.97;4218609;82;21041;-88
2022/05/31 13:23:37;;;;;;;4.35;1.90;;;;;;;23.50;38.28;98834.54;4176251;82;21083;-87
2022/05/31 13:36:49;;;;;;;2.70;1.63;;;;;;;23.42;38.66;98835.47;4021481;87;21131;-88
2022/05/31 13:43:11;;;;;;;3.30;1.77;;;;;;;23.39;38.88;98829.42;4029755;87;21021;-89
2022/05/31 13:50:06;;;;;;;2.42;1.42;;;;;;;23.22;38.58;98818.36;3910835;89;21574;-88
2022/05/31 13:56:35;;;;;;;6.87;1.82;;;;;;;23.22;38.49;98811.38;3908272;86;21051;-89
2022/05/31 14:03:06;;;;;;;2.58;1.65;;;;;;;22.87;38.09;98808.67;4041729;87;21239;-88
2022/05/31 14:09:22;;;;;;;5.40;2.30;;;;;;;22.94;38.90;98797.22;4099268;85;20986;-89
2022/05/31 14:15:34;;;;;;;3.83;1.90;;;;;;;22.81;38.93;98799.36;4103131;84;21552;-86
2022/05/31 14:37:02;;;;;;;2.90;1.57;;;;;;;23.24;40.10;98797.09;3947826;87;21114;-89
2022/05/31 15:04:08;;;;;;;5.83;1.77;;;;;;;23.28;40.83;98778.83;3875365;90;21682;-87
2022/05/31 15:10:34;;;;;;;6.83;2.00;;;;;;;22.92;41.04;98771.17;3989174;83;21022;-87
2022/05/31 15:23:54;;;;;;;2.62;1.90;;;;;;;22.63;41.67;98762.41;4182255;83;21514;-87
2022/05/31 15:29:59;;;;;;;4.37;2.08;;;;;;;22.71;42.12;98758.70;4191912;83;20982;-86
2022/05/31 15:36:09;;;;;;;3.33;1.80;;;;;;;22.76;42.36;98751.13;4142612;83;22314;-86
2022/05/31 15:49:15;;;;;;;4.30;1.80;;;;;;;22.40;42.85;98756.57;4226474;82;21792;-88
2022/05/31 15:55:33;;;;;;;2.92;2.02;;;;;;;22.23;42.89;98751.87;4211108;82;21074;-86
2022/05/31 16:02:00;;;;;;;3.37;2.02;;;;;;;22.13;43.18;98741.15;4217077;82;21657;-88
2022/05/31 16:08:02;;;;;;;3.20;1.90;;;;;;;22.11;43.36;98743.61;4131623;84;21040;-88
2022/05/31 16:14:13;;;;;;;3.30;1.90;;;;;;;22.08;43.88;98738.95;4151163;84;21012;-87
2022/05/31 16:20:38;;;;;;;2.90;1.87;;;;;;;21.95;44.25;98734.08;4083093;84;20986;-88
2022/05/31 16:26:56;;;;;;;3.92;2.42;;;;;;;21.76;44.50;98725.45;4135398;84;21020;-87
2022/05/31 16:33:04;;;;;;;3.62;2.15;;;;;;;21.62;44.88;98726.14;4132828;84;21030;-87
2022/05/31 16:45:46;;;;;;;4.12;2.05;;;;;;;21.57;45.27;98724.55;4139140;84;21012;-88
2022/05/31 16:51:54;;;;;;;3.05;1.75;;;;;;;21.50;45.36;98720.65;4128661;84;21008;-87
2022/05/31 16:58:06;;;;;;;4.70;1.90;;;;;;;21.42;45.41;98715.17;4126338;84;21102;-87
2022/05/31 17:04:09;;;;;;;3.42;1.52;;;;;;;21.34;45.57;98721.63;4149047;84;20995;-86
2022/05/31 17:16:56;;;;;;;4.42;2.00;;;;;;;21.16;45.91;98711.73;4140909;84;21111;-87
2022/05/31 17:23:10;;;;;;;3.95;1.72;;;;;;;21.03;46.08;98707.45;4119789;84;21034;-87
2022/05/31 17:29:23;;;;;;;3.65;2.37;;;;;;;20.87;46.27;98706.20;4149303;84;21536;-87
2022/05/31 17:35:43;;;;;;;2.62;1.87;;;;;;;20.67;46.47;98706.46;4248062;82;21034;-87
2022/05/31 17:42:01;;;;;;;6.60;3.10;;;;;;;20.54;46.74;98716.06;4207017;82;21044;-87
2022/05/31 17:48:08;;;;;;;3.83;2.65;;;;;;;20.36;47.06;98720.81;4124891;84;20999;-86
2022/05/31 17:54:27;;;;;;;7.08;5.08;;;;;;;20.23;47.82;98722.06;4262064;83;21009;-87
2022/05/31 18:00:35;;;;;;;13.88;7.28;;;;;;;20.04;48.25;98723.21;4032075;86;21030;-87
2022/05/31 18:06:55;;;;;;;19.75;10.13;;;;;;;19.85;48.50;98722.02;4093955;85;21045;-86
2022/05/31 18:13:15;;;;;;;14.80;9.00;;;;;;;19.65;48.99;98713.11;4046575;85;21092;-87
2022/05/31 18:26:44;;;;;;;15.25;8.65;;;;;;;19.26;50.26;98717.59;4045332;86;21607;-87
2022/05/31 18:46:52;;;;;;;7.30;5.50;;;;;;;18.71;52.50;98738.09;4227398;80;21046;-87
2022/05/31 18:53:07;;;;;;;10.43;6.65;;;;;;;18.55;52.51;98747.20;4211912;82;21058;-87
2022/05/31 18:59:28;;;;;;;11.73;7.25;;;;;;;18.39;53.05;98748.58;4217509;83;20994;-87
2022/05/31 19:05:37;;;;;;;6.35;3.65;;;;;;;18.24;54.00;98754.86;4225146;82;21034;-87
2022/05/31 19:11:42;;;;;;;6.55;4.03;;;;;;;17.84;53.68;98750.61;4225507;83;20996;-87
2022/05/31 19:24:35;;;;;;;10.70;3.73;;;;;;;17.56;54.80;98753.98;4217289;83;21042;-86
2022/05/31 19:44:29;;;;;;;7.37;3.85;;;;;;;16.66;56.48;98751.13;4304022;82;21530;-86
2022/05/31 19:50:44;;;;;;;8.80;4.85;;;;;;;16.47;57.20;98742.97;4241992;84;21079;-87
2022/05/31 19:57:01;;;;;;;9.13;4.58;;;;;;;16.24;57.65;98750.42;4245354;81;21626;-86
2022/05/31 20:03:30;;;;;;;11.70;4.05;;;;;;;16.06;58.25;98749.89;4316413;82;21477;-86
2022/05/31 20:10:04;;;;;;;6.87;4.35;;;;;;;15.68;58.84;98748.64;4235682;82;21023;-85
2022/05/31 20:30:13;;;;;;;6.67;3.98;;;;;;;14.88;60.71;98761.35;4169073;84;21028;-86
2022/05/31 20:36:48;;;;;;;9.45;4.05;;;;;;;14.74;61.84;98771.72;4229054;84;21082;-86
2022/05/31 20:43:21;;;;;;;6.95;5.17;;;;;;;14.70;62.79;98770.98;4188341;82;21002;-86
2022/05/31 20:49:56;;;;;;;10.13;5.95;;;;;;;14.49;63.03;98764.26;4222794;81;21042;-86
2022/05/31 20:56:04;;;;;;;11.50;5.75;;;;;;;14.35;63.50;98764.38;4236872;82;21003;-85
2022/05/31 21:02:30;;;;;;;11.95;5.50;;;;;;;14.18;63.34;98766.05;4234471;82;21017;-86
2022/05/31 21:08:55;;;;;;;10.03;4.75;;;;;;;14.02;64.66;98758.29;4246041;82;21058;-86
2022/05/31 21:15:07;;;;;;;8.33;5.75;;;;;;;13.78;65.17;98763.34;4235663;82;20987;-86
2022/05/31 21:21:52;;;;;;;11.70;6.00;;;;;;;13.69;65.21;98764.38;4240478;82;21074;-85
2022/05/31 21:28:19;;;;;;;10.40;5.95;;;;;;;13.40;65.77;98755.28;4215488;82;21105;-85
2022/05/31 21:34:24;;;;;;;20.15;10.48;;;;;;;13.18;66.74;98755.16;4253811;81;21050;-85
2022/05/31 21:54:27;;;;;;;12.40;7.65;;;;;;;12.85;68.09;98741.86;4158507;84;22294;-85
2022/05/31 22:00:54;;;;;;;17.02;9.38;;;;;;;12.79;69.01;98741.50;4155042;84;21927;-84
2022/05/31 22:07:32;;;;;;;14.87;9.85;;;;;;;12.76;69.25;98754.65;4144115;84;21034;-85
2022/05/31 22:13:33;;;;;;;;;;;;;;;12.54;69.41;98753.86;4154424;84;21046;-85
2022/05/31 22:19:45;;;;;;;;;;;;;;;12.58;72.08;98779.38;4163941;84;20235;-85
2022/05/31 22:32:46;;;;;;;;;;;;;;;12.40;73.11;98795.05;4151677;84;20151;-85
2022/05/31 22:45:56;;;;;;;;;;;;;;;12.25;73.14;98777.59;4155983;84;20166;-85
2022/05/31 22:51:58;;;;;;;;;;;;;;;11.98;73.20;98775.02;4193595;82;20186;-85
2022/05/31 22:58:03;;;;;;;;;;;;;;;11.84;74.62;98764.02;4238814;82;20161;-85
2022/05/31 23:04:19;;;;;;;;;;;;;;;11.66;73.54;98762.59;4220939;82;20391;-85
2022/05/31 23:10:46;;;;;;;;;;;;;;;11.64;75.02;98765.51;4236089;82;20110;-85
2022/05/31 23:16:57;;;;;;;;;;;;;;;11.63;76.26;98765.31;4219113;82;20469;-85
2022/05/31 23:29:55;;;;;;;;;;;;;;;11.62;76.27;98765.10;4236970;82;20449;-86
2022/05/31 23:43:21;;;;;;;;;;;;;;;11.80;76.79;98750.87;4232238;82;20147;-85
2022/05/31 23:49:32;;;;;;;;;;;;;;;11.72;77.49;98752.02;4225163;81;20268;-85
2022/05/31 23:55:34;;;;;;;;;;;;;;;11.69;77.35;98759.08;4215846;82;20128;-85
